createdAt,value
2017-12-26T00:00:33.135Z,92.14
2017-12-26T00:03:02.229Z,92.20
2017-12-26T00:05:30.977Z,92.23
2017-12-26T00:07:59.318Z,92.23
2017-12-26T00:10:27.643Z,91.88
2017-12-26T00:12:55.993Z,92.14
2017-12-26T00:15:24.367Z,92.02
2017-12-26T00:17:52.691Z,91.92
2017-12-26T00:20:21.809Z,91.85
2017-12-26T00:22:50.162Z,92.08
2017-12-26T00:25:18.518Z,91.98
2017-12-26T00:27:46.866Z,92.23
2017-12-26T00:30:15.208Z,91.81
2017-12-26T00:32:44.339Z,92.01
2017-12-26T00:35:12.698Z,91.96
2017-12-26T00:37:41.041Z,92.06
2017-12-26T00:40:09.377Z,91.67
2017-12-26T00:42:37.716Z,91.95
2017-12-26T00:45:06.802Z,92.00
2017-12-26T00:47:35.119Z,91.96
2017-12-26T00:50:03.456Z,92.08
2017-12-26T00:52:32.552Z,92.40
2017-12-26T00:55:00.888Z,92.05
2017-12-26T00:57:29.211Z,92.47
2017-12-26T00:59:58.309Z,92.83
2017-12-26T01:02:26.649Z,92.75
2017-12-26T01:04:55.044Z,92.91
2017-12-26T01:07:24.326Z,92.79
2017-12-26T01:09:52.668Z,93.36
2017-12-26T01:12:21.010Z,93.04
2017-12-26T01:14:50.092Z,92.87
2017-12-26T01:17:18.414Z,92.40
2017-12-26T01:19:46.753Z,92.60
2017-12-26T01:22:15.839Z,92.64
2017-12-26T01:24:44.172Z,92.34
2017-12-26T01:27:12.506Z,92.23
2017-12-26T01:29:40.846Z,91.68
2017-12-26T01:32:09.177Z,91.92
2017-12-26T01:34:37.521Z,92.21
2017-12-26T01:37:05.860Z,92.10
2017-12-26T01:39:34.198Z,92.17
2017-12-26T01:42:02.536Z,92.05
2017-12-26T01:44:30.857Z,92.28
2017-12-26T01:46:59.960Z,92.50
2017-12-26T01:49:28.301Z,93.02
2017-12-26T01:51:56.640Z,93.41
2017-12-26T01:54:24.998Z,93.59
2017-12-26T01:56:54.605Z,93.29
2017-12-26T01:59:23.695Z,93.53
2017-12-26T02:01:52.042Z,93.62
2017-12-26T02:04:20.374Z,94.24
2017-12-26T02:06:49.061Z,94.52
2017-12-26T02:09:18.253Z,95.05
2017-12-26T02:11:46.593Z,95.62
2017-12-26T02:14:14.937Z,95.80
2017-12-26T02:16:43.900Z,96.05
2017-12-26T02:19:12.232Z,96.24
2017-12-26T02:21:40.569Z,95.98
2017-12-26T02:24:08.891Z,96.02
2017-12-26T02:26:37.221Z,96.62
2017-12-26T02:29:05.563Z,97.40
2017-12-26T02:31:33.890Z,97.45
2017-12-26T02:34:02.227Z,97.31
2017-12-26T02:36:31.352Z,97.45
2017-12-26T02:38:59.728Z,97.58
2017-12-26T02:41:28.063Z,97.60
2017-12-26T02:43:56.432Z,97.06
2017-12-26T02:46:24.999Z,96.76
2017-12-26T02:48:53.339Z,96.90
2017-12-26T02:51:21.659Z,97.33
2017-12-26T02:53:49.988Z,97.63
2017-12-26T02:56:18.362Z,98.23
2017-12-26T02:58:46.706Z,98.40
2017-12-26T03:01:15.051Z,99.04
2017-12-26T03:03:44.397Z,99.56
2017-12-26T03:06:12.737Z,99.52
2017-12-26T03:08:41.067Z,99.86
2017-12-26T03:11:09.394Z,100.00
2017-12-26T03:13:37.731Z,100.00
2017-12-26T03:16:06.983Z,100.00
2017-12-26T03:18:35.313Z,100.00
2017-12-26T03:21:03.642Z,100.00
2017-12-26T03:23:32.005Z,100.00
2017-12-26T03:26:00.362Z,100.00
2017-12-26T03:28:28.712Z,100.00
2017-12-26T03:30:57.045Z,100.00
2017-12-26T03:33:25.395Z,100.00
2017-12-26T03:35:53.719Z,100.00
2017-12-26T03:38:22.073Z,100.00
2017-12-26T03:40:50.427Z,100.00
2017-12-26T03:43:18.777Z,100.00
2017-12-26T03:45:47.125Z,100.00
2017-12-26T03:48:15.492Z,100.00
2017-12-26T03:50:43.843Z,100.00
2017-12-26T03:53:12.188Z,100.00
2017-12-26T03:55:40.537Z,100.00
2017-12-26T03:58:08.865Z,100.00
2017-12-26T04:00:37.202Z,100.00
2017-12-26T04:03:06.308Z,100.00
2017-12-26T04:05:34.638Z,100.00
2017-12-26T04:08:02.997Z,100.00
2017-12-26T04:10:31.341Z,100.00
2017-12-26T04:13:00.449Z,100.00
2017-12-26T04:15:28.797Z,100.00
2017-12-26T04:17:57.138Z,100.00
2017-12-26T04:20:26.073Z,100.00
2017-12-26T04:22:55.200Z,100.00
2017-12-26T04:25:23.587Z,100.00
2017-12-26T04:27:52.147Z,100.00
2017-12-26T04:30:21.266Z,100.00
2017-12-26T04:32:49.596Z,100.00
2017-12-26T04:35:17.975Z,100.00
2017-12-26T04:37:47.093Z,100.00
2017-12-26T04:40:16.349Z,100.00
2017-12-26T04:42:44.672Z,100.00
2017-12-26T04:45:13.024Z,100.00
2017-12-26T04:47:41.358Z,100.00
2017-12-26T04:50:09.695Z,100.00
2017-12-26T04:52:38.786Z,100.00
2017-12-26T04:55:07.131Z,100.00
2017-12-26T04:57:35.479Z,100.00
2017-12-26T05:00:03.815Z,100.00
2017-12-26T05:02:32.918Z,100.00
2017-12-26T05:05:01.290Z,100.00
2017-12-26T05:07:29.620Z,100.00
2017-12-26T05:09:57.962Z,100.00
2017-12-26T05:12:26.331Z,100.00
2017-12-26T05:14:55.454Z,100.00
2017-12-26T05:17:23.794Z,100.00
2017-12-26T05:19:52.147Z,100.00
2017-12-26T05:22:20.498Z,100.00
2017-12-26T05:24:48.840Z,100.00
2017-12-26T05:27:17.935Z,100.00
2017-12-26T05:29:46.304Z,100.00
2017-12-26T05:32:14.640Z,100.00
2017-12-26T05:34:42.980Z,100.00
2017-12-26T05:37:11.353Z,100.00
2017-12-26T05:39:39.705Z,100.00
2017-12-26T05:42:08.040Z,100.00
2017-12-26T05:44:36.377Z,100.00
2017-12-26T05:47:04.728Z,100.00
2017-12-26T05:49:33.067Z,100.00
2017-12-26T05:52:01.403Z,100.00
2017-12-26T05:54:29.752Z,100.00
2017-12-26T05:56:58.090Z,100.00
2017-12-26T05:59:27.209Z,100.00
2017-12-26T06:01:55.539Z,100.00
2017-12-26T06:04:23.884Z,100.00
2017-12-26T06:06:52.234Z,100.00
2017-12-26T06:09:20.581Z,100.00
2017-12-26T06:11:49.259Z,100.00
2017-12-26T06:14:18.355Z,100.00
2017-12-26T06:16:48.703Z,100.00
2017-12-26T06:19:17.018Z,100.00
2017-12-26T06:21:45.338Z,100.00
2017-12-26T06:24:13.665Z,100.00
2017-12-26T06:26:43.043Z,99.46
2017-12-26T06:29:11.364Z,99.11
2017-12-26T06:31:39.702Z,99.24
2017-12-26T06:34:08.052Z,99.13
2017-12-26T06:36:36.364Z,98.54
2017-12-26T06:39:04.684Z,98.38
2017-12-26T06:41:33.028Z,98.12
2017-12-26T06:44:01.366Z,99.01
2017-12-26T06:46:29.685Z,99.22
2017-12-26T06:48:57.998Z,98.92
2017-12-26T06:51:27.114Z,98.60
2017-12-26T06:53:55.446Z,98.64
2017-12-26T06:56:23.774Z,98.32
2017-12-26T06:58:53.432Z,98.40
2017-12-26T07:01:21.777Z,98.32
2017-12-26T07:03:50.129Z,98.29
2017-12-26T07:06:18.451Z,99.25
2017-12-26T07:08:46.771Z,98.46
2017-12-26T07:11:15.095Z,97.96
2017-12-26T07:13:43.530Z,97.35
2017-12-26T07:16:11.859Z,97.42
2017-12-26T07:18:40.196Z,96.98
2017-12-26T07:21:14.748Z,96.75
2017-12-26T07:23:43.099Z,96.62
2017-12-26T07:26:11.418Z,96.88
2017-12-26T07:28:40.445Z,96.17
2017-12-26T07:31:08.775Z,96.62
2017-12-26T07:33:37.102Z,95.96
2017-12-26T07:36:06.190Z,96.01
2017-12-26T07:38:34.523Z,96.17
2017-12-26T07:41:02.860Z,95.63
2017-12-26T07:43:31.958Z,95.13
2017-12-26T07:46:00.278Z,95.20
2017-12-26T07:48:28.619Z,95.86
2017-12-26T07:50:57.721Z,95.51
2017-12-26T07:53:26.065Z,96.40
2017-12-26T07:55:54.400Z,96.58
2017-12-26T07:58:22.738Z,98.08
2017-12-26T08:00:51.827Z,97.82
2017-12-26T08:03:20.155Z,98.52
2017-12-26T08:05:48.470Z,98.73
2017-12-26T08:08:16.799Z,98.60
2017-12-26T08:10:45.120Z,98.87
2017-12-26T08:13:14.702Z,98.76
2017-12-26T08:15:43.038Z,98.31
2017-12-26T08:18:11.388Z,97.73
2017-12-26T08:20:39.719Z,97.69
2017-12-26T08:23:08.043Z,97.58
2017-12-26T08:25:36.379Z,97.73
2017-12-26T08:28:04.703Z,97.83
2017-12-26T08:30:33.052Z,97.86
2017-12-26T08:33:01.392Z,98.16
2017-12-26T08:35:29.745Z,97.98
2017-12-26T08:37:58.084Z,98.15
2017-12-26T08:40:26.433Z,98.29
2017-12-26T08:42:54.813Z,98.47
2017-12-26T08:45:23.892Z,98.58
2017-12-26T08:47:52.226Z,99.19
2017-12-26T08:50:20.561Z,99.10
2017-12-26T08:52:48.892Z,99.31
2017-12-26T08:55:17.255Z,99.50
2017-12-26T08:57:45.594Z,99.11
2017-12-26T09:00:13.932Z,98.91
2017-12-26T09:02:42.280Z,99.05
2017-12-26T09:05:11.485Z,99.45
2017-12-26T09:07:40.960Z,99.75
2017-12-26T09:10:09.310Z,99.88
2017-12-26T09:12:37.640Z,99.88
2017-12-26T09:15:05.968Z,99.76
2017-12-26T09:17:34.301Z,99.80
2017-12-26T09:20:02.644Z,99.42
2017-12-26T09:22:30.995Z,100.00
2017-12-26T09:25:00.097Z,100.00
2017-12-26T09:27:28.468Z,100.00
2017-12-26T09:29:56.812Z,100.00
2017-12-26T09:32:25.153Z,100.00
2017-12-26T09:34:54.070Z,100.00
2017-12-26T09:37:22.429Z,100.00
2017-12-26T09:39:51.545Z,100.00
2017-12-26T09:42:19.897Z,100.00
2017-12-26T09:44:48.253Z,100.00
2017-12-26T09:47:16.596Z,100.00
2017-12-26T09:49:45.720Z,100.00
2017-12-26T09:52:14.813Z,99.74
2017-12-26T09:54:43.906Z,99.43
2017-12-26T09:57:13.060Z,98.79
2017-12-26T09:59:41.813Z,99.46
2017-12-26T10:02:10.151Z,100.00
2017-12-26T10:04:39.288Z,100.00
2017-12-26T10:07:07.641Z,100.00
2017-12-26T10:09:36.750Z,100.00
2017-12-26T10:12:05.104Z,100.00
2017-12-26T10:14:33.474Z,100.00
2017-12-26T10:17:02.048Z,100.00
2017-12-26T10:19:30.393Z,100.00
2017-12-26T10:21:58.701Z,100.00
2017-12-26T10:24:27.633Z,100.00
2017-12-26T10:26:55.959Z,100.00
2017-12-26T10:29:24.308Z,100.00
2017-12-26T10:31:52.648Z,100.00
2017-12-26T10:34:21.761Z,100.00
2017-12-26T10:36:50.087Z,100.00
2017-12-26T10:39:18.415Z,100.00
2017-12-26T10:41:46.749Z,99.60
2017-12-26T10:44:15.098Z,97.27
2017-12-26T10:46:44.307Z,96.69
2017-12-26T10:49:12.654Z,96.00
2017-12-26T10:51:40.989Z,96.32
2017-12-26T10:54:09.318Z,96.61
2017-12-26T10:56:38.378Z,97.25
2017-12-26T10:59:07.508Z,96.15
2017-12-26T11:01:35.854Z,98.98
2017-12-26T11:04:04.202Z,98.45
2017-12-26T11:06:32.531Z,97.64
2017-12-26T11:09:00.841Z,96.67
2017-12-26T11:11:29.207Z,97.04
2017-12-26T11:13:57.560Z,96.43
2017-12-26T11:16:25.902Z,94.90
2017-12-26T11:18:54.266Z,93.48
2017-12-26T11:21:22.608Z,94.82
2017-12-26T11:23:50.950Z,93.32
2017-12-26T11:26:19.281Z,93.98
2017-12-26T11:28:47.627Z,94.68
2017-12-26T11:31:15.984Z,91.76
2017-12-26T11:33:44.321Z,92.16
2017-12-26T11:36:12.654Z,91.21
2017-12-26T11:38:41.739Z,90.68
2017-12-26T11:41:10.848Z,91.13
2017-12-26T11:43:39.193Z,89.29
2017-12-26T11:46:07.520Z,90.47
2017-12-26T11:48:35.939Z,90.26
2017-12-26T11:51:04.267Z,90.83
2017-12-26T11:53:32.596Z,90.58
2017-12-26T11:56:00.981Z,91.65
2017-12-26T11:58:29.313Z,90.29
2017-12-26T12:00:57.660Z,90.35
2017-12-26T12:03:27.069Z,91.06
2017-12-26T12:05:55.401Z,90.05
2017-12-26T12:08:23.734Z,91.69
2017-12-26T12:10:52.073Z,91.58
2017-12-26T12:13:20.397Z,91.66
2017-12-26T12:15:48.758Z,89.88
2017-12-26T12:18:17.098Z,91.62
2017-12-26T12:20:45.437Z,89.80
2017-12-26T12:23:13.755Z,89.22
2017-12-26T12:25:42.093Z,89.96
2017-12-26T12:28:10.411Z,90.78
2017-12-26T12:30:38.800Z,90.02
2017-12-26T12:33:07.154Z,90.00
2017-12-26T12:35:35.475Z,90.04
2017-12-26T12:38:03.810Z,89.97
2017-12-26T12:40:32.129Z,90.94
2017-12-26T12:43:01.180Z,89.86
2017-12-26T12:45:29.603Z,90.38
2017-12-26T12:47:57.932Z,89.83
2017-12-26T12:50:26.247Z,89.90
2017-12-26T12:52:54.605Z,90.47
2017-12-26T12:55:22.958Z,91.37
2017-12-26T12:57:51.315Z,90.79
2017-12-26T13:00:19.649Z,91.08
2017-12-26T13:02:48.735Z,91.23
2017-12-26T13:05:17.060Z,90.76
2017-12-26T13:07:45.410Z,89.56
2017-12-26T13:10:14.525Z,89.67
2017-12-26T13:12:42.889Z,89.21
2017-12-26T13:15:11.234Z,88.56
2017-12-26T13:17:39.577Z,88.56
2017-12-26T13:20:07.925Z,88.93
2017-12-26T13:22:37.049Z,89.78
2017-12-26T13:25:05.432Z,89.05
2017-12-26T13:27:33.770Z,89.69
2017-12-26T13:30:02.876Z,89.32
2017-12-26T13:32:31.207Z,89.14
2017-12-26T13:34:59.566Z,90.10
2017-12-26T13:37:27.900Z,90.48
2017-12-26T13:39:56.238Z,89.85
2017-12-26T13:42:24.589Z,88.60
2017-12-26T13:44:52.903Z,88.69
2017-12-26T13:47:21.233Z,89.06
2017-12-26T13:49:49.595Z,87.92
2017-12-26T13:52:17.919Z,87.54
2017-12-26T13:54:46.257Z,87.62
2017-12-26T13:57:14.572Z,87.82
2017-12-26T13:59:42.891Z,87.79
2017-12-26T14:02:11.971Z,87.27
2017-12-26T14:04:40.311Z,86.45
2017-12-26T14:07:08.648Z,86.54
2017-12-26T14:09:37.754Z,87.08
2017-12-26T14:12:06.070Z,86.88
2017-12-26T14:14:34.396Z,87.20
2017-12-26T14:17:03.486Z,86.65
2017-12-26T14:19:31.813Z,87.07
2017-12-26T14:22:00.150Z,87.46
2017-12-26T14:24:29.242Z,88.09
2017-12-26T14:26:57.582Z,87.99
2017-12-26T14:29:25.957Z,87.62
2017-12-26T14:31:54.271Z,88.09
2017-12-26T14:34:23.608Z,87.98
2017-12-26T14:36:51.998Z,88.32
2017-12-26T14:39:20.348Z,87.92
2017-12-26T14:41:48.662Z,87.79
2017-12-26T14:44:17.044Z,86.58
2017-12-26T14:46:45.496Z,86.16
2017-12-26T14:49:13.822Z,86.21
2017-12-26T14:51:42.150Z,86.42
2017-12-26T14:54:10.484Z,86.47
2017-12-26T14:56:39.750Z,87.06
2017-12-26T14:59:08.094Z,86.81
2017-12-26T15:01:36.439Z,86.77
2017-12-26T15:04:04.785Z,86.46
2017-12-26T15:06:33.139Z,86.61
2017-12-26T15:09:01.536Z,86.94
2017-12-26T15:11:29.867Z,86.70
2017-12-26T15:13:58.969Z,87.15
2017-12-26T15:16:27.286Z,87.23
2017-12-26T15:18:55.621Z,86.19
2017-12-26T15:21:24.714Z,86.93
2017-12-26T15:23:53.040Z,87.54
2017-12-26T15:26:21.435Z,87.41
2017-12-26T15:28:49.779Z,87.98
2017-12-26T15:31:18.121Z,88.32
2017-12-26T15:33:47.214Z,87.91
2017-12-26T15:36:15.555Z,88.17
2017-12-26T15:38:43.878Z,87.82
2017-12-26T15:41:12.986Z,88.05
2017-12-26T15:43:41.344Z,88.33
2017-12-26T15:46:09.688Z,87.64
2017-12-26T15:48:38.055Z,88.04
2017-12-26T15:51:06.383Z,87.53
2017-12-26T15:53:35.467Z,87.73
2017-12-26T15:56:04.503Z,87.97
2017-12-26T15:58:32.819Z,87.70
2017-12-26T16:01:01.140Z,87.61
2017-12-26T16:03:29.470Z,87.93
2017-12-26T16:05:57.812Z,86.87
2017-12-26T16:08:26.136Z,87.54
2017-12-26T16:10:54.475Z,87.77
2017-12-26T16:13:22.816Z,87.35
2017-12-26T16:15:51.902Z,87.60
2017-12-26T16:18:20.248Z,87.97
2017-12-26T16:20:48.595Z,87.60
2017-12-26T16:23:16.943Z,87.41
2017-12-26T16:25:45.351Z,88.17
2017-12-26T16:28:13.690Z,87.21
2017-12-26T16:30:42.795Z,87.57
2017-12-26T16:33:11.129Z,86.82
2017-12-26T16:35:39.483Z,87.29
2017-12-26T16:38:07.814Z,88.64
2017-12-26T16:40:36.138Z,89.27
2017-12-26T16:43:04.459Z,89.81
2017-12-26T16:45:32.792Z,89.49
2017-12-26T16:48:01.128Z,91.01
2017-12-26T16:50:29.480Z,92.13
2017-12-26T16:52:57.828Z,92.72
2017-12-26T16:55:27.055Z,92.52
2017-12-26T16:57:55.398Z,92.46
2017-12-26T17:00:24.572Z,92.54
2017-12-26T17:02:52.923Z,92.50
2017-12-26T17:05:21.686Z,92.03
2017-12-26T17:07:50.033Z,91.84
2017-12-26T17:10:18.356Z,91.95
2017-12-26T17:12:46.713Z,91.61
2017-12-26T17:15:15.065Z,91.25
2017-12-26T17:17:43.401Z,91.29
2017-12-26T17:20:11.749Z,90.39
2017-12-26T17:22:40.088Z,90.11
2017-12-26T17:25:08.414Z,89.32
2017-12-26T17:27:36.762Z,89.19
2017-12-26T17:30:05.105Z,89.02
2017-12-26T17:32:34.218Z,89.00
2017-12-26T17:35:02.544Z,89.17
2017-12-26T17:37:30.915Z,89.63
2017-12-26T17:39:59.265Z,89.80
2017-12-26T17:42:27.599Z,88.81
2017-12-26T17:44:55.960Z,88.92
2017-12-26T17:47:25.070Z,88.13
2017-12-26T17:49:53.421Z,88.63
2017-12-26T17:52:21.754Z,88.37
2017-12-26T17:54:50.084Z,88.21
2017-12-26T17:57:18.440Z,88.32
2017-12-26T17:59:47.738Z,87.88
2017-12-26T18:02:16.084Z,87.83
2017-12-26T18:04:44.428Z,87.49
2017-12-26T18:07:12.767Z,87.73
2017-12-26T18:09:41.090Z,87.81
2017-12-26T18:12:09.418Z,87.66
2017-12-26T18:14:38.529Z,87.32
2017-12-26T18:17:06.888Z,87.44
2017-12-26T18:19:35.212Z,87.75
2017-12-26T18:22:03.592Z,87.73
2017-12-26T18:24:31.936Z,88.11
2017-12-26T18:27:00.285Z,87.99
2017-12-26T18:29:29.528Z,87.82
2017-12-26T18:31:57.845Z,87.87
2017-12-26T18:34:26.937Z,88.12
2017-12-26T18:36:55.279Z,88.16
2017-12-26T18:39:25.460Z,88.04
2017-12-26T18:41:53.797Z,87.35
2017-12-26T18:44:22.157Z,87.50
2017-12-26T18:46:50.519Z,87.42
2017-12-26T18:49:20.359Z,87.68
2017-12-26T18:51:49.569Z,87.93
2017-12-26T18:54:17.976Z,87.92
2017-12-26T18:56:46.582Z,87.71
2017-12-26T18:59:15.202Z,87.50
2017-12-26T19:01:43.619Z,88.44
2017-12-26T19:04:12.085Z,89.59
2017-12-26T19:06:40.597Z,89.93
2017-12-26T19:09:09.063Z,89.28
2017-12-26T19:11:38.048Z,89.70
2017-12-26T19:14:07.173Z,89.28
2017-12-26T19:16:35.564Z,89.01
2017-12-26T19:19:03.897Z,89.59
2017-12-26T19:21:32.254Z,89.75
2017-12-26T19:24:00.642Z,90.08
2017-12-26T19:26:30.733Z,89.95
2017-12-26T19:29:00.176Z,90.11
2017-12-26T19:31:28.581Z,90.19
2017-12-26T19:33:57.116Z,89.86
2017-12-26T19:36:25.505Z,89.52
2017-12-26T19:38:54.197Z,89.25
2017-12-26T19:41:22.619Z,89.29
2017-12-26T19:43:51.031Z,89.47
2017-12-26T19:46:19.409Z,89.63
2017-12-26T19:48:47.869Z,89.47
2017-12-26T19:51:16.335Z,89.36
2017-12-26T19:53:44.827Z,89.53
2017-12-26T19:56:13.671Z,89.33
2017-12-26T19:58:42.815Z,89.42
2017-12-26T20:01:12.735Z,89.29
2017-12-26T20:03:41.465Z,89.42
2017-12-26T20:06:09.937Z,89.92
2017-12-26T20:08:39.570Z,89.59
2017-12-26T20:11:08.917Z,89.36
2017-12-26T20:13:37.881Z,89.23
2017-12-26T20:16:07.124Z,89.39
2017-12-26T20:18:36.321Z,89.72
2017-12-26T20:21:05.584Z,89.54
2017-12-26T20:23:34.753Z,89.22
2017-12-26T20:26:04.231Z,89.22
2017-12-26T20:28:39.145Z,89.23
2017-12-26T20:31:08.692Z,89.74
2017-12-26T20:33:38.375Z,89.83
2017-12-26T20:36:08.059Z,89.71
2017-12-26T20:38:37.732Z,89.56
2017-12-26T20:41:07.413Z,89.72
2017-12-26T20:43:37.131Z,89.97
2017-12-26T20:46:06.884Z,90.13
2017-12-26T20:48:36.728Z,91.28
2017-12-26T20:51:06.295Z,90.58
2017-12-26T20:53:36.173Z,90.01
2017-12-26T20:56:05.852Z,90.39
2017-12-26T20:58:35.573Z,90.35
2017-12-26T21:01:05.529Z,90.52
2017-12-26T21:03:36.187Z,90.33
2017-12-26T21:06:06.051Z,89.79
2017-12-26T21:08:35.698Z,89.45
2017-12-26T21:11:06.218Z,89.74
2017-12-26T21:13:36.639Z,89.39
2017-12-26T21:16:06.601Z,89.01
2017-12-26T21:18:36.377Z,88.73
2017-12-26T21:21:06.199Z,88.51
2017-12-26T21:23:35.974Z,88.56
2017-12-26T21:26:05.791Z,87.90
2017-12-26T21:28:35.655Z,88.47
2017-12-26T21:31:05.465Z,88.28
2017-12-26T21:33:35.253Z,88.96
2017-12-26T21:36:04.995Z,88.56
2017-12-26T21:38:35.138Z,87.67
2017-12-26T21:41:04.994Z,87.87
2017-12-26T21:43:34.707Z,88.67
2017-12-26T21:46:04.553Z,88.37
2017-12-26T21:48:34.456Z,89.30
2017-12-26T21:51:04.137Z,89.70
2017-12-26T21:53:34.583Z,89.24
2017-12-26T21:56:04.226Z,89.20
2017-12-26T21:58:33.690Z,88.87
2017-12-26T22:01:02.854Z,89.00
2017-12-26T22:03:32.273Z,88.63
2017-12-26T22:06:01.828Z,88.29
2017-12-26T22:08:31.159Z,87.99
2017-12-26T22:11:00.807Z,88.43
2017-12-26T22:13:30.518Z,89.58
2017-12-26T22:15:59.975Z,89.70
2017-12-26T22:18:29.641Z,90.21
2017-12-26T22:20:58.648Z,90.03
2017-12-26T22:23:28.911Z,90.51
2017-12-26T22:26:01.400Z,90.67
2017-12-26T22:28:33.011Z,91.53
2017-12-26T22:31:02.328Z,91.40
2017-12-26T22:33:31.993Z,91.91
2017-12-26T22:36:00.668Z,92.31
2017-12-26T22:38:29.901Z,92.06
2017-12-26T22:40:58.489Z,91.82
2017-12-26T22:43:27.662Z,91.94
2017-12-26T22:45:56.057Z,92.88
2017-12-26T22:48:24.448Z,92.14
2017-12-26T22:50:52.790Z,91.89
2017-12-26T22:53:21.160Z,91.96
2017-12-26T22:55:49.498Z,91.78
2017-12-26T22:58:17.852Z,91.77
2017-12-26T23:00:46.221Z,91.81
2017-12-26T23:03:14.570Z,92.54
2017-12-26T23:05:44.306Z,92.60
2017-12-26T23:08:12.626Z,92.34
2017-12-26T23:10:41.232Z,92.60
2017-12-26T23:13:09.574Z,93.36
2017-12-26T23:15:43.453Z,93.50
2017-12-26T23:18:17.360Z,93.04
2017-12-26T23:20:51.201Z,93.29
2017-12-26T23:23:24.987Z,93.15
2017-12-26T23:25:58.809Z,93.21
2017-12-26T23:28:33.729Z,92.92
2017-12-26T23:31:07.612Z,92.79
2017-12-26T23:33:41.393Z,92.43
2017-12-26T23:36:15.130Z,92.16
2017-12-26T23:38:48.898Z,91.72
2017-12-26T23:41:22.669Z,91.85
2017-12-26T23:43:56.462Z,91.92
2017-12-26T23:46:30.334Z,91.66
2017-12-26T23:49:04.121Z,91.64
2017-12-26T23:51:37.952Z,91.35
2017-12-26T23:54:11.710Z,91.69
2017-12-26T23:56:46.411Z,91.34
